createdAt,value
2022-12-28T00:01:23.476Z,2.50
2022-12-28T00:03:50.883Z,2.50
2022-12-28T00:06:19.021Z,2.50
2022-12-28T00:08:45.764Z,2.50
2022-12-28T00:11:27.847Z,2.50
2022-12-28T00:13:59.653Z,2.50
2022-12-28T00:16:31.728Z,2.40
2022-12-28T00:19:01.294Z,2.40
2022-12-28T00:21:29.115Z,2.40
2022-12-28T00:23:58.172Z,2.40
2022-12-28T00:26:27.603Z,2.40
2022-12-28T00:29:01.492Z,2.40
2022-12-28T00:31:31.462Z,2.40
2022-12-28T00:33:58.247Z,2.40
2022-12-28T00:37:08.349Z,2.40
2022-12-28T00:39:12.064Z,2.40
2022-12-28T00:41:38.807Z,2.40
2022-12-28T00:44:08.530Z,2.40
2022-12-28T00:46:35.734Z,2.50
2022-12-28T00:49:02.404Z,2.50
2022-12-28T00:51:29.170Z,2.50
2022-12-28T00:53:55.920Z,2.50
2022-12-28T00:56:23.032Z,2.50
2022-12-28T00:58:50.351Z,2.50
2022-12-28T01:01:22.854Z,2.60
2022-12-28T01:03:50.735Z,2.60
2022-12-28T01:06:20.369Z,2.60
2022-12-28T01:08:47.461Z,2.60
2022-12-28T01:11:19.128Z,2.60
2022-12-28T01:13:46.842Z,2.70
2022-12-28T01:16:16.037Z,2.70
2022-12-28T01:18:44.134Z,2.70
2022-12-28T01:21:13.613Z,2.80
2022-12-28T01:23:42.872Z,2.70
2022-12-28T01:26:09.847Z,2.80
2022-12-28T01:28:36.707Z,2.80
2022-12-28T01:31:16.098Z,2.90
2022-12-28T01:33:43.282Z,2.90
2022-12-28T01:36:16.461Z,3.00
2022-12-28T01:38:44.507Z,3.00
2022-12-28T01:41:14.703Z,3.00
2022-12-28T01:43:42.765Z,3.10
2022-12-28T01:46:16.545Z,3.10
2022-12-28T01:49:00.734Z,3.10
2022-12-28T01:51:31.506Z,3.20
2022-12-28T01:54:00.122Z,3.10
2022-12-28T01:56:27.727Z,3.20
2022-12-28T01:58:56.525Z,3.30
2022-12-28T02:01:23.682Z,3.30
2022-12-28T02:03:50.725Z,3.30
2022-12-28T02:06:18.469Z,3.30
2022-12-28T02:09:04.071Z,3.30
2022-12-28T02:11:31.356Z,3.40
2022-12-28T02:13:59.924Z,3.40
2022-12-28T02:16:26.651Z,3.40
2022-12-28T02:18:53.803Z,3.40
2022-12-28T02:21:47.763Z,3.50
2022-12-28T02:24:45.163Z,3.50
2022-12-28T02:27:39.731Z,3.50
2022-12-28T02:30:11.584Z,3.60
2022-12-28T02:32:53.328Z,3.60
2022-12-28T02:35:43.417Z,3.60
2022-12-28T02:38:25.872Z,3.60
2022-12-28T02:41:01.121Z,3.60
2022-12-28T02:43:28.452Z,3.60
2022-12-28T02:46:13.724Z,3.60
2022-12-28T02:49:03.658Z,3.70
2022-12-28T02:52:03.516Z,3.70
2022-12-28T02:54:59.300Z,3.70
2022-12-28T02:57:56.770Z,3.70
2022-12-28T03:00:29.313Z,3.70
2022-12-28T03:03:21.976Z,3.80
2022-12-28T03:06:30.092Z,3.80
2022-12-28T03:09:37.750Z,3.80
2022-12-28T03:12:29.640Z,3.80
2022-12-28T03:15:10.420Z,3.80
2022-12-28T03:18:00.362Z,3.90
2022-12-28T03:20:49.631Z,3.90
2022-12-28T03:23:41.452Z,3.90
2022-12-28T03:26:29.382Z,3.90
2022-12-28T03:29:18.153Z,3.90
2022-12-28T03:31:45.113Z,3.90
2022-12-28T03:34:14.930Z,3.90
2022-12-28T03:36:59.498Z,3.90
2022-12-28T03:39:51.063Z,3.90
2022-12-28T03:42:47.462Z,3.90
2022-12-28T03:45:46.582Z,3.90
2022-12-28T03:48:17.223Z,4.00
2022-12-28T03:50:48.138Z,4.00
2022-12-28T03:53:24.778Z,4.00
2022-12-28T03:56:06.653Z,4.00
2022-12-28T03:58:33.942Z,4.00
2022-12-28T04:01:00.653Z,4.00
2022-12-28T04:03:28.377Z,4.00
2022-12-28T04:05:56.152Z,4.00
2022-12-28T04:08:23.699Z,4.00
2022-12-28T04:10:52.386Z,4.00
2022-12-28T04:13:19.116Z,4.00
2022-12-28T04:16:02.934Z,4.00
2022-12-28T04:18:32.175Z,4.00
2022-12-28T04:20:59.330Z,4.00
2022-12-28T04:23:26.837Z,4.00
2022-12-28T04:26:11.347Z,4.00
2022-12-28T04:28:39.253Z,4.10
2022-12-28T04:31:26.413Z,4.10
2022-12-28T04:34:06.545Z,4.10
2022-12-28T04:36:39.259Z,4.10
2022-12-28T04:39:09.849Z,4.10
2022-12-28T04:41:36.526Z,4.20
2022-12-28T04:44:03.185Z,4.10
2022-12-28T04:46:29.928Z,4.10
2022-12-28T04:48:56.580Z,4.20
2022-12-28T04:51:26.061Z,4.20
2022-12-28T04:53:53.873Z,4.20
2022-12-28T04:56:22.858Z,4.20
2022-12-28T04:58:54.643Z,4.20
2022-12-28T05:01:21.564Z,4.20
2022-12-28T05:03:54.999Z,4.20
2022-12-28T05:06:25.345Z,4.20
2022-12-28T05:08:52.349Z,4.20
2022-12-28T05:11:21.410Z,4.20
2022-12-28T05:13:48.459Z,4.20
2022-12-28T05:16:17.833Z,4.20
2022-12-28T05:18:44.950Z,4.30
2022-12-28T05:21:30.105Z,4.30
2022-12-28T05:23:57.672Z,4.30
2022-12-28T05:26:27.314Z,4.30
2022-12-28T05:28:55.168Z,4.30
2022-12-28T05:31:23.888Z,4.30
2022-12-28T05:33:51.118Z,4.20
2022-12-28T05:36:20.493Z,4.30
2022-12-28T05:38:48.042Z,4.30
2022-12-28T05:41:27.193Z,4.30
2022-12-28T05:43:55.002Z,4.30
2022-12-28T05:46:30.548Z,4.30
2022-12-28T05:48:57.812Z,4.30
2022-12-28T05:51:27.122Z,4.30
2022-12-28T05:53:53.960Z,4.30
2022-12-28T05:56:23.752Z,4.30
2022-12-28T05:58:59.311Z,4.30
2022-12-28T06:01:31.101Z,4.30
2022-12-28T06:04:01.942Z,4.30
2022-12-28T06:06:29.819Z,4.40
2022-12-28T06:08:56.633Z,4.40
2022-12-28T06:11:25.775Z,4.40
2022-12-28T06:13:53.087Z,4.50
2022-12-28T06:16:22.428Z,4.50
2022-12-28T06:18:49.445Z,4.50
2022-12-28T06:21:21.521Z,4.50
2022-12-28T06:23:49.218Z,4.50
2022-12-28T06:26:18.140Z,4.60
2022-12-28T06:28:45.769Z,4.60
2022-12-28T06:31:24.772Z,4.60
2022-12-28T06:33:57.152Z,4.60
2022-12-28T06:36:36.834Z,4.60
2022-12-28T06:39:07.522Z,4.60
2022-12-28T06:41:34.814Z,4.60
2022-12-28T06:44:02.311Z,4.60
2022-12-28T06:46:30.513Z,4.60
2022-12-28T06:48:57.989Z,4.60
2022-12-28T06:51:27.379Z,4.60
2022-12-28T06:53:55.119Z,4.60
2022-12-28T06:56:24.669Z,4.60
2022-12-28T06:58:55.714Z,4.50
2022-12-28T07:01:33.362Z,4.50
2022-12-28T07:04:00.544Z,4.50
2022-12-28T07:06:28.665Z,4.50
2022-12-28T07:09:03.594Z,4.40
2022-12-28T07:11:30.795Z,4.40
2022-12-28T07:14:05.217Z,4.50
2022-12-28T07:19:07.422Z,4.40
2022-12-28T07:24:28.029Z,4.50
2022-12-28T07:26:57.619Z,4.50
2022-12-28T07:29:53.458Z,4.50
2022-12-28T07:32:20.284Z,4.50
2022-12-28T07:35:14.431Z,4.50
2022-12-28T07:37:41.279Z,4.50
2022-12-28T07:40:17.561Z,4.60
2022-12-28T07:42:57.394Z,4.50
2022-12-28T07:45:24.147Z,4.60
2022-12-28T07:47:57.680Z,4.60
2022-12-28T07:50:24.662Z,4.60
2022-12-28T07:52:51.441Z,4.60
2022-12-28T07:55:21.158Z,4.60
2022-12-28T07:57:47.958Z,4.70
2022-12-28T08:00:18.562Z,4.60
2022-12-28T08:02:47.613Z,4.70
2022-12-28T08:05:14.679Z,4.70
2022-12-28T08:07:46.585Z,4.70
2022-12-28T08:10:13.366Z,4.70
2022-12-28T08:12:44.407Z,4.70
2022-12-28T08:15:18.823Z,4.70
2022-12-28T08:17:50.932Z,4.70
2022-12-28T08:20:18.026Z,4.70
2022-12-28T08:22:55.847Z,4.80
2022-12-28T08:25:23.119Z,4.80
2022-12-28T08:27:53.444Z,4.80
2022-12-28T08:30:20.363Z,4.80
2022-12-28T08:32:51.908Z,4.80
2022-12-28T08:35:21.051Z,4.90
2022-12-28T08:38:00.196Z,4.90
2022-12-28T08:40:29.900Z,4.90
2022-12-28T08:43:27.380Z,5.00
2022-12-28T08:46:13.449Z,5.00
2022-12-28T08:48:50.779Z,5.10
2022-12-28T08:51:27.316Z,5.10
2022-12-28T08:53:54.214Z,5.20
2022-12-28T08:56:28.662Z,5.20
2022-12-28T08:58:56.547Z,5.20
2022-12-28T09:01:35.887Z,5.30
2022-12-28T09:04:15.817Z,5.40
2022-12-28T09:07:14.385Z,5.40
2022-12-28T09:10:32.745Z,5.40
2022-12-28T09:12:59.633Z,5.50
2022-12-28T09:15:38.040Z,5.60
2022-12-28T09:18:04.925Z,5.60
2022-12-28T09:20:40.808Z,5.70
2022-12-28T09:23:17.506Z,5.70
2022-12-28T09:25:44.432Z,5.70
2022-12-28T09:28:21.014Z,5.70
2022-12-28T09:30:50.299Z,5.80
2022-12-28T09:34:23.364Z,5.80
2022-12-28T09:36:44.878Z,5.90
2022-12-28T09:39:32.000Z,5.90
2022-12-28T09:42:23.560Z,5.90
2022-12-28T09:45:14.811Z,6.00
2022-12-28T09:48:31.423Z,6.00
2022-12-28T09:51:25.808Z,6.00
2022-12-28T09:53:52.832Z,6.10
2022-12-28T09:56:39.535Z,6.10
2022-12-28T10:02:40.883Z,6.20
2022-12-28T10:05:17.246Z,6.20
2022-12-28T10:07:44.150Z,6.30
2022-12-28T10:10:24.238Z,6.30
2022-12-28T10:12:55.136Z,6.40
2022-12-28T10:15:27.148Z,6.50
2022-12-28T10:17:56.459Z,6.50
2022-12-28T10:20:23.386Z,6.50
2022-12-28T10:23:07.400Z,6.60
2022-12-28T10:25:43.601Z,6.60
2022-12-28T10:28:49.998Z,6.70
2022-12-28T10:31:34.870Z,6.70
2022-12-28T10:35:10.873Z,6.80
2022-12-28T10:37:44.671Z,6.80
2022-12-28T10:40:46.854Z,6.90
2022-12-28T10:44:08.574Z,6.90
2022-12-28T10:46:52.324Z,7.00
2022-12-28T10:49:20.724Z,7.00
2022-12-28T10:52:15.511Z,7.10
2022-12-28T10:54:42.987Z,7.10
2022-12-28T10:58:18.676Z,7.10
2022-12-28T11:00:36.907Z,7.10
2022-12-28T11:03:18.968Z,7.10
2022-12-28T11:05:46.593Z,7.10
2022-12-28T11:08:23.966Z,7.20
2022-12-28T11:11:45.202Z,7.20
2022-12-28T11:14:43.430Z,7.20
2022-12-28T11:17:26.863Z,7.20
2022-12-28T11:20:45.685Z,7.20
2022-12-28T11:23:26.099Z,7.30
2022-12-28T11:25:53.185Z,7.30
2022-12-28T11:28:28.698Z,7.30
2022-12-28T11:32:16.046Z,7.40
2022-12-28T11:35:31.540Z,7.40
2022-12-28T11:38:41.307Z,7.40
2022-12-28T11:41:37.353Z,7.50
2022-12-28T11:44:15.843Z,7.50
2022-12-28T11:46:43.009Z,7.50
2022-12-28T11:49:35.832Z,7.50
2022-12-28T11:52:18.034Z,7.60
2022-12-28T11:54:59.752Z,7.60
2022-12-28T11:57:44.295Z,7.60
2022-12-28T12:00:22.835Z,7.70
2022-12-28T12:03:00.761Z,7.80
2022-12-28T12:05:38.350Z,7.90
2022-12-28T12:08:20.724Z,8.00
2022-12-28T12:10:48.328Z,8.10
2022-12-28T12:13:27.390Z,8.10
2022-12-28T12:16:06.800Z,8.20
2022-12-28T12:18:47.125Z,8.20
2022-12-28T12:21:31.608Z,8.30
2022-12-28T12:24:06.841Z,8.30
2022-12-28T12:26:44.087Z,8.30
2022-12-28T12:29:23.859Z,8.30
2022-12-28T12:32:22.259Z,8.30
2022-12-28T12:35:02.777Z,8.30
2022-12-28T12:38:13.794Z,8.30
2022-12-28T12:40:55.958Z,8.20
2022-12-28T12:43:44.449Z,8.20
2022-12-28T12:46:40.365Z,8.20
2022-12-28T12:49:38.002Z,8.20
2022-12-28T12:52:32.750Z,8.20
2022-12-28T12:55:23.944Z,8.20
2022-12-28T12:58:02.226Z,8.20
2022-12-28T13:00:48.488Z,8.20
2022-12-28T13:03:42.333Z,8.20
2022-12-28T13:06:14.356Z,8.20
2022-12-28T13:08:51.866Z,8.20
2022-12-28T13:11:19.693Z,8.20
2022-12-28T13:13:50.928Z,8.20
2022-12-28T13:16:31.117Z,8.20
2022-12-28T13:19:01.995Z,8.20
2022-12-28T13:21:39.611Z,8.10
2022-12-28T13:24:18.703Z,8.10
2022-12-28T13:26:45.555Z,8.10
2022-12-28T13:29:18.922Z,8.10
2022-12-28T13:31:51.189Z,8.10
2022-12-28T13:34:24.709Z,8.20
2022-12-28T13:36:54.366Z,8.10
2022-12-28T13:39:25.203Z,8.10
2022-12-28T13:41:58.074Z,8.10
2022-12-28T13:44:38.968Z,8.10
2022-12-28T13:47:28.252Z,8.10
2022-12-28T13:50:17.122Z,8.10
2022-12-28T13:52:51.000Z,8.00
2022-12-28T13:55:24.907Z,8.10
2022-12-28T13:57:59.678Z,8.00
2022-12-28T14:00:29.134Z,8.00
2022-12-28T14:02:58.255Z,8.00
2022-12-28T14:05:28.514Z,8.00
2022-12-28T14:07:57.808Z,8.00
2022-12-28T14:10:24.917Z,8.00
2022-12-28T14:12:59.765Z,8.00
2022-12-28T14:15:26.821Z,8.00
2022-12-28T14:17:54.266Z,7.90
2022-12-28T14:20:21.516Z,7.90
2022-12-28T14:22:48.534Z,8.00
2022-12-28T14:25:18.393Z,7.90
2022-12-28T14:28:17.516Z,7.90
2022-12-28T14:30:50.272Z,7.90
2022-12-28T14:33:25.002Z,7.90
2022-12-28T14:35:58.537Z,7.90
2022-12-28T14:38:33.689Z,7.90
2022-12-28T14:41:05.128Z,7.80
2022-12-28T14:43:35.581Z,7.90
2022-12-28T14:46:30.983Z,7.80
2022-12-28T14:48:58.438Z,7.90
2022-12-28T14:51:31.232Z,7.80
2022-12-28T14:54:17.518Z,7.80
2022-12-28T14:57:01.870Z,7.80
2022-12-28T14:59:37.584Z,7.80
2022-12-28T15:02:08.170Z,7.80
2022-12-28T15:04:40.208Z,7.80
2022-12-28T15:07:12.569Z,7.80
2022-12-28T15:09:40.352Z,7.70
2022-12-28T15:12:09.648Z,7.70
2022-12-28T15:14:36.929Z,7.70
2022-12-28T15:17:03.903Z,7.70
2022-12-28T15:19:30.675Z,7.70
2022-12-28T15:22:01.012Z,7.70
2022-12-28T15:24:33.559Z,7.60
2022-12-28T15:27:03.915Z,7.60
2022-12-28T15:32:17.762Z,7.60
2022-12-28T15:34:44.922Z,7.50
2022-12-28T15:37:11.634Z,7.50
2022-12-28T15:39:38.414Z,7.50
2022-12-28T15:42:08.643Z,7.50
2022-12-28T15:44:35.366Z,7.50
2022-12-28T15:47:02.376Z,7.50
2022-12-28T15:49:32.273Z,7.50
2022-12-28T15:51:59.746Z,7.50
2022-12-28T15:54:32.557Z,7.40
2022-12-28T15:56:59.380Z,7.40
2022-12-28T15:59:26.728Z,7.40
2022-12-28T16:01:56.519Z,7.40
2022-12-28T16:04:23.399Z,7.40
2022-12-28T16:06:50.115Z,7.40
2022-12-28T16:09:17.082Z,7.50
2022-12-28T16:11:44.995Z,7.50
2022-12-28T16:14:23.143Z,7.50
2022-12-28T16:16:50.084Z,7.50
2022-12-28T16:19:24.132Z,7.50
2022-12-28T16:21:51.554Z,7.50
2022-12-28T16:24:23.962Z,7.50
2022-12-28T16:26:50.956Z,7.50
2022-12-28T16:29:17.974Z,7.50
2022-12-28T16:31:52.916Z,7.50
2022-12-28T16:34:19.672Z,7.50
2022-12-28T16:36:50.296Z,7.50
2022-12-28T16:39:18.314Z,7.50
2022-12-28T16:41:55.334Z,7.50
2022-12-28T16:44:24.676Z,7.50
2022-12-28T16:46:58.153Z,7.50
2022-12-28T16:49:26.869Z,7.50
2022-12-28T16:51:56.289Z,7.50
2022-12-28T16:54:24.709Z,7.50
2022-12-28T16:56:57.617Z,7.60
2022-12-28T16:59:29.152Z,7.60
2022-12-28T17:01:58.496Z,7.50
2022-12-28T17:04:25.478Z,7.60
2022-12-28T17:06:53.088Z,7.50
2022-12-28T17:09:23.241Z,7.60
2022-12-28T17:11:50.654Z,7.60
2022-12-28T17:14:36.430Z,7.60
2022-12-28T17:17:07.142Z,7.50
2022-12-28T17:19:34.918Z,7.50
2022-12-28T17:22:03.124Z,7.50
2022-12-28T17:24:29.942Z,7.50
2022-12-28T17:26:58.219Z,7.50
2022-12-28T17:29:31.065Z,7.50
2022-12-28T17:31:57.954Z,7.60
2022-12-28T17:34:24.716Z,7.50
2022-12-28T17:36:54.017Z,7.50
2022-12-28T17:39:21.299Z,7.50
2022-12-28T17:41:48.089Z,7.50
2022-12-28T17:44:17.923Z,7.50
2022-12-28T17:46:44.686Z,7.50
2022-12-28T17:49:18.208Z,7.50
2022-12-28T17:51:45.008Z,7.40
2022-12-28T17:54:13.402Z,7.50
2022-12-28T17:56:43.406Z,7.40
2022-12-28T17:59:15.141Z,7.40
2022-12-28T18:01:44.916Z,7.50
2022-12-28T18:04:12.405Z,7.40
2022-12-28T18:06:39.437Z,7.40
2022-12-28T18:09:06.624Z,7.40
2022-12-28T18:11:33.633Z,7.40
2022-12-28T18:14:00.398Z,7.40
2022-12-28T18:16:30.017Z,7.40
2022-12-28T18:18:56.897Z,7.50
2022-12-28T18:21:23.713Z,7.50
2022-12-28T18:23:54.783Z,7.50
2022-12-28T18:26:26.059Z,7.50
2022-12-28T18:28:56.753Z,7.50
2022-12-28T18:31:25.034Z,7.50
2022-12-28T18:33:52.511Z,7.50
2022-12-28T18:36:19.376Z,7.50
2022-12-28T18:38:47.514Z,7.50
2022-12-28T18:41:24.750Z,7.50
2022-12-28T18:43:53.744Z,7.50
2022-12-28T18:46:23.400Z,7.50
2022-12-28T18:48:50.394Z,7.50
2022-12-28T18:51:18.136Z,7.50
2022-12-28T18:53:51.565Z,7.50
2022-12-28T18:56:30.376Z,7.50
2022-12-28T18:58:57.295Z,7.50
2022-12-28T19:04:15.831Z,7.40
2022-12-28T19:06:53.685Z,7.40
2022-12-28T19:09:20.903Z,7.50
2022-12-28T19:11:53.521Z,7.40
2022-12-28T19:14:20.359Z,7.40
2022-12-28T19:16:47.156Z,7.40
2022-12-28T19:19:17.823Z,7.40
2022-12-28T19:21:45.135Z,7.40
2022-12-28T19:24:19.539Z,7.40
2022-12-28T19:26:47.215Z,7.30
2022-12-28T19:29:19.417Z,7.30
2022-12-28T19:31:46.303Z,7.30
2022-12-28T19:34:13.132Z,7.30
2022-12-28T19:36:43.108Z,7.30
2022-12-28T19:39:11.371Z,7.30
2022-12-28T19:41:43.699Z,7.30
2022-12-28T19:44:11.615Z,7.30
2022-12-28T19:46:38.669Z,7.30
2022-12-28T19:49:09.729Z,7.30
2022-12-28T19:51:36.743Z,7.20
2022-12-28T19:54:10.482Z,7.20
2022-12-28T19:56:37.585Z,7.20
2022-12-28T19:59:06.977Z,7.20
2022-12-28T20:01:37.366Z,7.10
2022-12-28T20:04:12.385Z,7.00
2022-12-28T20:06:41.316Z,7.00
2022-12-28T20:09:08.172Z,7.00
2022-12-28T20:11:38.408Z,6.90
2022-12-28T20:14:05.510Z,6.90
2022-12-28T20:16:35.508Z,6.90
2022-12-28T20:19:08.610Z,6.90
2022-12-28T20:21:42.481Z,6.90
2022-12-28T20:24:11.473Z,6.90
2022-12-28T20:26:41.816Z,6.90
2022-12-28T20:29:08.861Z,6.90
2022-12-28T20:31:35.796Z,6.90
2022-12-28T20:34:06.524Z,6.90
2022-12-28T20:36:34.324Z,6.90
2022-12-28T20:39:01.448Z,6.80
2022-12-28T20:41:51.320Z,6.80
2022-12-28T20:44:31.327Z,6.80
2022-12-28T20:46:58.932Z,6.80
2022-12-28T20:49:32.728Z,6.80
2022-12-28T20:51:59.558Z,6.80
2022-12-28T20:54:26.455Z,6.70
2022-12-28T20:56:56.610Z,6.70
2022-12-28T20:59:24.948Z,6.70
2022-12-28T21:01:52.367Z,6.80
2022-12-28T21:04:27.186Z,6.70
2022-12-28T21:06:59.081Z,6.80
2022-12-28T21:09:25.851Z,6.80
2022-12-28T21:11:52.591Z,6.80
2022-12-28T21:14:21.653Z,6.80
2022-12-28T21:16:48.735Z,6.80
2022-12-28T21:19:16.116Z,6.80
2022-12-28T21:21:46.348Z,6.80
2022-12-28T21:24:13.128Z,6.90
2022-12-28T21:26:39.939Z,6.80
2022-12-28T21:29:09.304Z,6.90
2022-12-28T21:31:36.186Z,6.90
2022-12-28T21:34:08.626Z,6.90
2022-12-28T21:36:35.410Z,6.90
2022-12-28T21:39:02.249Z,6.90
2022-12-28T21:41:54.525Z,6.90
2022-12-28T21:44:24.344Z,6.90
2022-12-28T21:46:54.593Z,6.90
2022-12-28T21:49:21.519Z,6.90
2022-12-28T21:51:48.440Z,6.90
2022-12-28T21:54:18.075Z,7.00
2022-12-28T21:56:46.498Z,7.00
2022-12-28T21:59:22.707Z,7.00
2022-12-28T22:02:08.136Z,7.00
2022-12-28T22:04:58.693Z,7.00
2022-12-28T22:07:29.352Z,7.10
2022-12-28T22:10:14.634Z,7.10
2022-12-28T22:12:44.028Z,7.10
2022-12-28T22:15:35.673Z,7.10
2022-12-28T22:18:44.876Z,7.10
2022-12-28T22:21:11.089Z,7.20
2022-12-28T22:23:37.904Z,7.20
2022-12-28T22:26:05.997Z,7.20
2022-12-28T22:28:40.235Z,7.20
2022-12-28T22:31:12.843Z,7.20
2022-12-28T22:33:39.730Z,7.20
2022-12-28T22:36:10.968Z,7.20
2022-12-28T22:38:37.809Z,7.20
2022-12-28T22:41:04.643Z,7.30
2022-12-28T22:43:31.438Z,7.30
2022-12-28T22:46:09.456Z,7.30
2022-12-28T22:48:37.352Z,7.40
2022-12-28T22:51:10.906Z,7.40
2022-12-28T22:53:38.316Z,7.40
2022-12-28T22:56:08.321Z,7.50
2022-12-28T22:58:35.311Z,7.40
2022-12-28T23:01:11.369Z,7.40
2022-12-28T23:03:42.287Z,7.40
2022-12-28T23:06:11.437Z,7.50
2022-12-28T23:08:38.356Z,7.50
2022-12-28T23:11:30.184Z,7.50
2022-12-28T23:14:20.048Z,7.50
2022-12-28T23:16:47.380Z,7.50
2022-12-28T23:19:33.657Z,7.50
2022-12-28T23:22:19.605Z,7.50
2022-12-28T23:25:05.020Z,7.50
2022-12-28T23:27:38.765Z,7.50
2022-12-28T23:30:09.247Z,7.50
2022-12-28T23:32:36.042Z,7.50
2022-12-28T23:35:03.953Z,7.50
2022-12-28T23:37:31.133Z,7.50
2022-12-28T23:39:57.902Z,7.50
2022-12-28T23:42:24.789Z,7.50
2022-12-28T23:44:51.643Z,7.60
2022-12-28T23:47:19.521Z,7.60
2022-12-28T23:49:46.487Z,7.60
2022-12-28T23:52:13.214Z,7.70
2022-12-28T23:54:40.002Z,7.70
2022-12-28T23:57:06.753Z,7.70
2022-12-28T23:59:33.515Z,7.80
